createdAt,value
2023-01-13T00:00:35.207Z,0
2023-01-13T00:01:49.625Z,0
2023-01-13T00:03:03.938Z,0
2023-01-13T00:04:18.218Z,0
2023-01-13T00:05:32.501Z,0
2023-01-13T00:06:46.913Z,0
2023-01-13T00:08:01.239Z,0
2023-01-13T00:09:15.509Z,0
2023-01-13T00:10:29.794Z,0
2023-01-13T00:11:44.257Z,0
2023-01-13T00:12:58.605Z,0
2023-01-13T00:14:11.982Z,0
2023-01-13T00:15:26.326Z,0
2023-01-13T00:16:40.734Z,0
2023-01-13T00:17:55.063Z,0
2023-01-13T00:19:08.406Z,0
2023-01-13T00:20:22.702Z,0
2023-01-13T00:21:37.100Z,0
2023-01-13T00:22:51.429Z,0
2023-01-13T00:24:05.708Z,0
2023-01-13T00:25:19.991Z,0
2023-01-13T00:26:34.404Z,0
2023-01-13T00:27:48.717Z,0
2023-01-13T00:29:03.005Z,0
2023-01-13T00:30:17.272Z,0
2023-01-13T00:31:31.684Z,0
2023-01-13T00:32:46.012Z,0
2023-01-13T00:34:00.302Z,0
2023-01-13T00:35:14.576Z,0
2023-01-13T00:36:28.989Z,0
2023-01-13T00:37:43.301Z,0
2023-01-13T00:38:57.584Z,0
2023-01-13T00:40:11.858Z,0
2023-01-13T00:41:26.272Z,0
2023-01-13T00:42:40.604Z,0
2023-01-13T00:43:54.882Z,0
2023-01-13T00:45:09.160Z,0
2023-01-13T00:46:23.561Z,0
2023-01-13T00:47:37.892Z,0
2023-01-13T00:48:52.177Z,0
2023-01-13T00:50:06.517Z,0
2023-01-13T00:51:20.881Z,1
2023-01-13T00:52:35.215Z,0
2023-01-13T00:53:48.615Z,0
2023-01-13T00:55:01.999Z,0
2023-01-13T00:56:16.334Z,0
2023-01-13T00:57:30.672Z,0
2023-01-13T00:58:45.019Z,0
2023-01-13T00:59:59.356Z,0
2023-01-13T01:01:13.752Z,0
2023-01-13T01:02:28.104Z,0
2023-01-13T01:03:41.439Z,0
2023-01-13T01:04:55.717Z,0
2023-01-13T01:06:10.071Z,1
2023-01-13T01:07:24.367Z,0
2023-01-13T01:08:38.648Z,0
2023-01-13T01:09:52.943Z,0
2023-01-13T01:11:07.335Z,0
2023-01-13T01:12:21.670Z,0
2023-01-13T01:13:35.941Z,0
2023-01-13T01:14:50.221Z,0
2023-01-13T01:16:04.628Z,0
2023-01-13T01:17:18.950Z,0
2023-01-13T01:18:33.234Z,0
2023-01-13T01:19:47.512Z,0
2023-01-13T01:21:01.935Z,0
2023-01-13T01:22:16.247Z,0
2023-01-13T01:23:30.532Z,0
2023-01-13T01:24:44.802Z,0
2023-01-13T01:25:59.227Z,0
2023-01-13T01:27:13.552Z,0
2023-01-13T01:28:27.828Z,0
2023-01-13T01:29:42.105Z,0
2023-01-13T01:30:56.515Z,0
2023-01-13T01:32:10.846Z,0
2023-01-13T01:33:25.117Z,0
2023-01-13T01:34:39.463Z,0
2023-01-13T01:35:53.862Z,0
2023-01-13T01:37:08.194Z,0
2023-01-13T01:38:21.549Z,0
2023-01-13T01:39:35.832Z,0
2023-01-13T01:40:50.236Z,0
2023-01-13T01:42:04.562Z,0
2023-01-13T01:43:18.847Z,0
2023-01-13T01:44:33.114Z,0
2023-01-13T01:45:47.528Z,0
2023-01-13T01:47:01.859Z,0
2023-01-13T01:48:16.143Z,0
2023-01-13T01:49:30.417Z,0
2023-01-13T01:50:44.817Z,0
2023-01-13T01:51:59.138Z,0
2023-01-13T01:53:13.428Z,0
2023-01-13T01:54:27.697Z,0
2023-01-13T01:55:42.109Z,0
2023-01-13T01:56:56.442Z,0
2023-01-13T01:59:25.002Z,0
2023-01-13T02:00:39.411Z,0
2023-01-13T02:01:53.721Z,0
2023-01-13T02:03:08.015Z,0
2023-01-13T02:04:22.281Z,0
2023-01-13T02:05:36.689Z,0
2023-01-13T02:06:51.028Z,0
2023-01-13T02:08:05.299Z,0
2023-01-13T02:09:19.638Z,0
2023-01-13T02:10:34.059Z,0
2023-01-13T02:11:48.389Z,0
2023-01-13T02:13:01.741Z,0
2023-01-13T02:14:16.016Z,0
2023-01-13T02:15:30.431Z,0
2023-01-13T02:16:44.754Z,0
2023-01-13T02:17:59.031Z,0
2023-01-13T02:19:13.314Z,0
2023-01-13T02:20:27.712Z,0
2023-01-13T02:22:56.323Z,0
2023-01-13T02:24:10.609Z,0
2023-01-13T02:25:25.002Z,0
2023-01-13T02:26:39.327Z,0
2023-01-13T02:27:53.000Z,0
2023-01-13T02:30:22.299Z,0
2023-01-13T02:31:36.633Z,0
2023-01-13T02:32:50.898Z,0
2023-01-13T02:34:05.185Z,0
2023-01-13T02:35:19.598Z,0
2023-01-13T02:36:33.916Z,0
2023-01-13T02:37:48.194Z,0
2023-01-13T02:39:02.484Z,0
2023-01-13T02:40:16.878Z,0
2023-01-13T02:41:31.213Z,0
2023-01-13T02:42:45.490Z,0
2023-01-13T02:43:59.828Z,0
2023-01-13T02:45:14.243Z,0
2023-01-13T02:46:28.565Z,0
2023-01-13T02:47:41.928Z,0
2023-01-13T02:48:56.206Z,0
2023-01-13T02:50:10.613Z,0
2023-01-13T02:51:24.938Z,0
2023-01-13T02:52:39.207Z,0
2023-01-13T02:53:53.499Z,0
2023-01-13T02:56:22.219Z,0
2023-01-13T02:57:36.513Z,0
2023-01-13T02:58:50.795Z,0
2023-01-13T03:00:05.198Z,0
2023-01-13T03:01:19.516Z,0
2023-01-13T03:02:33.795Z,0
2023-01-13T03:03:48.078Z,0
2023-01-13T03:05:02.492Z,0
2023-01-13T03:06:16.807Z,0
2023-01-13T03:07:31.087Z,0
2023-01-13T03:08:45.360Z,0
2023-01-13T03:09:59.771Z,0
2023-01-13T03:11:14.103Z,0
2023-01-13T03:12:28.381Z,0
2023-01-13T03:13:42.663Z,0
2023-01-13T03:14:57.061Z,0
2023-01-13T03:16:11.399Z,0
2023-01-13T03:17:25.663Z,0
2023-01-13T03:18:40.022Z,0
2023-01-13T03:19:54.413Z,0
2023-01-13T03:21:08.839Z,0
2023-01-13T03:22:23.160Z,0
2023-01-13T03:23:37.496Z,0
2023-01-13T03:24:51.772Z,0
2023-01-13T03:26:06.186Z,0
2023-01-13T03:27:20.497Z,0
2023-01-13T03:28:34.769Z,0
2023-01-13T03:29:49.061Z,0
2023-01-13T03:31:03.466Z,0
2023-01-13T03:32:17.781Z,0
2023-01-13T03:33:32.070Z,0
2023-01-13T03:34:46.362Z,0
2023-01-13T03:36:00.756Z,0
2023-01-13T03:37:15.083Z,0
2023-01-13T03:38:29.362Z,0
2023-01-13T03:39:43.637Z,0
2023-01-13T03:40:58.054Z,0
2023-01-13T03:42:12.377Z,0
2023-01-13T03:43:26.655Z,0
2023-01-13T03:44:40.935Z,0
2023-01-13T03:45:55.342Z,0
2023-01-13T03:47:09.674Z,0
2023-01-13T03:48:23.950Z,0
2023-01-13T03:49:38.221Z,0
2023-01-13T03:50:52.627Z,0
2023-01-13T03:52:07.021Z,0
2023-01-13T03:53:20.412Z,0
2023-01-13T03:54:33.748Z,0
2023-01-13T03:55:48.075Z,0
2023-01-13T03:57:02.347Z,0
2023-01-13T03:58:16.640Z,0
2023-01-13T04:00:45.368Z,0
2023-01-13T04:01:59.653Z,0
2023-01-13T04:03:13.921Z,0
2023-01-13T04:04:28.341Z,0
2023-01-13T04:05:42.659Z,0
2023-01-13T04:06:56.939Z,0
2023-01-13T04:08:11.217Z,0
2023-01-13T04:09:25.632Z,0
2023-01-13T04:10:39.958Z,0
2023-01-13T04:11:54.230Z,0
2023-01-13T04:13:08.510Z,0
2023-01-13T04:14:22.925Z,0
2023-01-13T04:15:37.244Z,0
2023-01-13T04:16:51.531Z,0
2023-01-13T04:18:05.802Z,0
2023-01-13T04:19:20.208Z,0
2023-01-13T04:20:34.532Z,0
2023-01-13T04:21:48.811Z,0
2023-01-13T04:23:03.101Z,0
2023-01-13T04:24:17.503Z,0
2023-01-13T04:25:31.881Z,0
2023-01-13T04:26:45.270Z,0
2023-01-13T04:27:59.693Z,0
2023-01-13T04:29:14.112Z,0
2023-01-13T04:30:28.437Z,0
2023-01-13T04:31:42.704Z,0
2023-01-13T04:32:56.997Z,0
2023-01-13T04:34:11.399Z,0
2023-01-13T04:35:25.719Z,0
2023-01-13T04:36:39.997Z,0
2023-01-13T04:37:54.285Z,0
2023-01-13T04:39:08.692Z,0
2023-01-13T04:40:23.017Z,0
2023-01-13T04:41:37.293Z,0
2023-01-13T04:42:51.571Z,0
2023-01-13T04:44:05.977Z,0
2023-01-13T04:45:20.228Z,1
2023-01-13T04:46:34.499Z,0
2023-01-13T04:47:48.794Z,0
2023-01-13T04:49:03.200Z,0
2023-01-13T04:50:17.513Z,0
2023-01-13T04:51:31.787Z,0
2023-01-13T04:52:46.083Z,0
2023-01-13T04:54:00.489Z,0
2023-01-13T04:55:14.799Z,0
2023-01-13T04:56:29.079Z,0
2023-01-13T04:57:43.372Z,0
2023-01-13T04:58:57.842Z,0
2023-01-13T05:00:12.176Z,0
2023-01-13T05:01:25.559Z,0
2023-01-13T05:02:38.919Z,0
2023-01-13T05:03:53.239Z,0
2023-01-13T05:05:07.511Z,0
2023-01-13T05:06:21.799Z,0
2023-01-13T05:07:36.203Z,0
2023-01-13T05:08:50.514Z,0
2023-01-13T05:10:04.813Z,0
2023-01-13T05:11:19.091Z,0
2023-01-13T05:12:33.484Z,0
2023-01-13T05:13:47.808Z,0
2023-01-13T05:15:02.088Z,0
2023-01-13T05:16:16.384Z,0
2023-01-13T05:17:30.784Z,0
2023-01-13T05:18:45.109Z,0
2023-01-13T05:19:59.383Z,0
2023-01-13T05:21:13.678Z,0
2023-01-13T05:22:28.078Z,0
2023-01-13T05:23:42.409Z,0
2023-01-13T05:24:56.671Z,0
2023-01-13T05:26:10.957Z,0
2023-01-13T05:27:25.374Z,0
2023-01-13T05:28:39.697Z,0
2023-01-13T05:29:53.966Z,0
2023-01-13T05:31:08.250Z,0
2023-01-13T05:32:22.665Z,0
2023-01-13T05:33:37.039Z,0
2023-01-13T05:34:50.440Z,0
2023-01-13T05:36:04.767Z,0
2023-01-13T05:37:19.183Z,0
2023-01-13T05:38:33.515Z,0
2023-01-13T05:39:46.808Z,1
2023-01-13T05:41:01.082Z,0
2023-01-13T05:42:15.502Z,0
2023-01-13T05:43:29.800Z,0
2023-01-13T05:44:44.078Z,0
2023-01-13T05:45:58.360Z,0
2023-01-13T05:47:12.756Z,0
2023-01-13T05:48:27.093Z,0
2023-01-13T05:49:41.361Z,0
2023-01-13T05:50:55.648Z,0
2023-01-13T05:52:10.050Z,0
2023-01-13T05:53:24.378Z,0
2023-01-13T05:54:38.664Z,0
2023-01-13T05:55:52.936Z,0
2023-01-13T05:57:07.338Z,0
2023-01-13T05:58:21.642Z,0
2023-01-13T05:59:35.917Z,0
2023-01-13T06:00:50.200Z,0
2023-01-13T06:02:04.600Z,0
2023-01-13T06:03:18.936Z,0
2023-01-13T06:04:33.216Z,0
2023-01-13T06:05:47.501Z,0
2023-01-13T06:07:01.892Z,0
2023-01-13T06:08:16.229Z,0
2023-01-13T06:09:30.455Z,1
2023-01-13T06:10:44.834Z,0
2023-01-13T06:11:58.220Z,0
2023-01-13T06:13:12.508Z,1
2023-01-13T06:14:26.869Z,1
2023-01-13T06:15:41.105Z,1
2023-01-13T06:16:55.323Z,1
2023-01-13T06:18:09.683Z,0
2023-01-13T06:19:23.999Z,0
2023-01-13T06:20:38.277Z,0
2023-01-13T06:21:52.562Z,0
2023-01-13T06:23:06.976Z,0
2023-01-13T06:24:21.216Z,1
2023-01-13T06:25:35.483Z,0
2023-01-13T06:26:49.812Z,0
2023-01-13T06:28:04.088Z,0
2023-01-13T06:29:18.508Z,0
2023-01-13T06:30:32.787Z,1
2023-01-13T06:31:47.064Z,0
2023-01-13T06:33:01.348Z,0
2023-01-13T06:34:15.581Z,1
2023-01-13T06:35:29.972Z,0
2023-01-13T06:36:44.281Z,0
2023-01-13T06:37:58.550Z,0
2023-01-13T06:39:12.880Z,0
2023-01-13T06:40:27.172Z,0
2023-01-13T06:41:41.514Z,1
2023-01-13T06:42:55.752Z,1
2023-01-13T06:44:09.991Z,1
2023-01-13T06:45:24.265Z,1
2023-01-13T06:46:37.597Z,1
2023-01-13T06:47:51.883Z,1
2023-01-13T06:49:05.172Z,1
2023-01-13T06:50:19.409Z,1
2023-01-13T06:51:33.710Z,1
2023-01-13T06:52:48.011Z,0
2023-01-13T06:54:02.284Z,0
2023-01-13T06:55:16.560Z,0
2023-01-13T06:56:30.980Z,0
2023-01-13T06:58:59.437Z,1
2023-01-13T07:00:13.668Z,3
2023-01-13T07:01:27.899Z,2
2023-01-13T07:02:42.186Z,2
2023-01-13T07:03:56.443Z,3
2023-01-13T07:05:10.665Z,5
2023-01-13T07:06:24.894Z,7
2023-01-13T07:07:39.112Z,8
2023-01-13T07:08:53.418Z,7
2023-01-13T07:10:07.657Z,5
2023-01-13T07:11:21.889Z,13
2023-01-13T07:12:36.103Z,11
2023-01-13T07:13:50.326Z,11
2023-01-13T07:15:04.641Z,12
2023-01-13T07:16:18.877Z,11
2023-01-13T07:17:33.111Z,15
2023-01-13T07:18:47.323Z,29
2023-01-13T07:20:01.610Z,33
2023-01-13T07:21:15.915Z,49
2023-01-13T07:22:30.187Z,62
2023-01-13T07:23:43.525Z,69
2023-01-13T07:24:57.819Z,71
2023-01-13T07:26:12.103Z,81
2023-01-13T07:27:26.399Z,93
2023-01-13T07:28:39.684Z,106
2023-01-13T07:29:53.919Z,124
2023-01-13T07:31:08.217Z,139
2023-01-13T07:32:22.454Z,160
2023-01-13T07:33:36.693Z,181
2023-01-13T07:36:05.143Z,213
2023-01-13T07:37:19.433Z,235
2023-01-13T07:38:33.685Z,268
2023-01-13T07:39:47.900Z,284
2023-01-13T07:41:02.142Z,313
2023-01-13T07:42:16.365Z,320
2023-01-13T07:43:30.653Z,339
2023-01-13T07:44:44.890Z,365
2023-01-13T07:47:13.345Z,400
2023-01-13T07:48:27.572Z,396
2023-01-13T07:49:41.876Z,344
2023-01-13T07:50:56.116Z,380
2023-01-13T07:52:10.356Z,408
2023-01-13T07:53:24.568Z,410
2023-01-13T07:54:38.798Z,252
2023-01-13T07:55:53.103Z,491
2023-01-13T07:57:07.336Z,351
2023-01-13T07:58:21.561Z,329
2023-01-13T07:59:35.850Z,363
2023-01-13T08:00:49.194Z,477
2023-01-13T08:02:03.480Z,396
2023-01-13T08:03:16.767Z,496
2023-01-13T08:04:31.002Z,527
2023-01-13T08:05:45.310Z,483
2023-01-13T08:06:59.551Z,599
2023-01-13T08:08:13.763Z,603
2023-01-13T08:09:28.002Z,758
2023-01-13T08:10:42.223Z,799
2023-01-13T08:11:56.516Z,886
2023-01-13T08:13:10.759Z,727
2023-01-13T08:14:24.996Z,718
2023-01-13T08:15:39.207Z,780
2023-01-13T08:16:53.435Z,638
2023-01-13T08:18:07.753Z,603
2023-01-13T08:19:21.980Z,681
2023-01-13T08:20:36.214Z,689
2023-01-13T08:21:50.440Z,666
2023-01-13T08:23:04.657Z,617
2023-01-13T08:24:18.968Z,913
2023-01-13T08:25:33.206Z,906
2023-01-13T08:26:47.441Z,1033
2023-01-13T08:28:01.665Z,1026
2023-01-13T08:30:30.179Z,1171
2023-01-13T08:31:44.419Z,910
2023-01-13T08:32:58.644Z,595
2023-01-13T08:34:12.936Z,977
2023-01-13T08:35:26.274Z,1173
2023-01-13T08:36:40.553Z,919
2023-01-13T08:37:54.829Z,887
2023-01-13T08:39:08.141Z,924
2023-01-13T08:40:22.433Z,924
2023-01-13T08:41:36.671Z,638
2023-01-13T08:42:50.903Z,872
2023-01-13T08:44:05.122Z,902
2023-01-13T08:45:19.354Z,977
2023-01-13T08:46:33.652Z,733
2023-01-13T08:47:47.897Z,807
2023-01-13T08:49:02.119Z,615
2023-01-13T08:50:16.351Z,618
2023-01-13T08:51:30.583Z,704
2023-01-13T08:52:44.885Z,806
2023-01-13T08:53:59.108Z,927
2023-01-13T08:55:13.344Z,716
2023-01-13T08:56:27.574Z,743
2023-01-13T08:57:41.802Z,964
2023-01-13T09:00:10.336Z,1033
2023-01-13T09:01:24.562Z,1122
2023-01-13T09:02:38.801Z,1363
2023-01-13T09:03:53.026Z,1467
2023-01-13T09:05:07.321Z,1270
2023-01-13T09:06:21.551Z,1884
2023-01-13T09:07:35.785Z,1144
2023-01-13T09:08:50.019Z,939
2023-01-13T09:10:04.295Z,1046
2023-01-13T09:11:18.596Z,1013
2023-01-13T09:12:32.888Z,1029
2023-01-13T09:13:46.174Z,732
2023-01-13T09:15:00.401Z,461
2023-01-13T09:16:14.711Z,1265
2023-01-13T09:17:28.951Z,1379
2023-01-13T09:18:43.174Z,1234
2023-01-13T09:19:57.396Z,1183
2023-01-13T09:21:11.627Z,1345
2023-01-13T09:22:25.920Z,1307
2023-01-13T09:23:40.165Z,1689
2023-01-13T09:24:54.393Z,1804
2023-01-13T09:26:08.622Z,1181
2023-01-13T09:27:22.853Z,1179
2023-01-13T09:28:37.151Z,867
2023-01-13T09:29:51.388Z,706
2023-01-13T09:31:05.602Z,865
2023-01-13T09:32:19.845Z,772
2023-01-13T09:33:34.058Z,747
2023-01-13T09:34:48.365Z,1107
2023-01-13T09:36:02.615Z,1261
2023-01-13T09:37:16.831Z,965
2023-01-13T09:38:31.051Z,723
2023-01-13T09:39:45.286Z,741
2023-01-13T09:40:59.586Z,469
2023-01-13T09:42:13.819Z,534
2023-01-13T09:43:28.054Z,591
2023-01-13T09:44:42.339Z,734
2023-01-13T09:45:55.675Z,913
2023-01-13T09:47:09.957Z,1292
2023-01-13T09:48:23.252Z,1198
2023-01-13T09:49:37.471Z,1428
2023-01-13T09:50:51.770Z,1858
2023-01-13T09:52:06.008Z,1511
2023-01-13T09:53:20.248Z,1165
2023-01-13T09:54:34.460Z,1571
2023-01-13T09:55:48.689Z,1436
2023-01-13T09:57:03.002Z,827
2023-01-13T09:58:17.238Z,2324
2023-01-13T09:59:31.454Z,2113
2023-01-13T10:00:45.694Z,1236
2023-01-13T10:01:59.913Z,1001
2023-01-13T10:03:14.221Z,1599
2023-01-13T10:04:28.000Z,1948
2023-01-13T10:05:42.682Z,2348
2023-01-13T10:06:56.907Z,2820
2023-01-13T10:08:11.137Z,3107
2023-01-13T10:09:25.434Z,3484
2023-01-13T10:10:39.682Z,3430
2023-01-13T10:11:53.903Z,2267
2023-01-13T10:14:22.363Z,3285
2023-01-13T10:15:36.669Z,2355
2023-01-13T10:16:50.900Z,1934
2023-01-13T10:18:05.119Z,1933
2023-01-13T10:19:19.405Z,2334
2023-01-13T10:20:33.808Z,3201
2023-01-13T10:21:48.126Z,2456
2023-01-13T10:23:02.391Z,2379
2023-01-13T10:26:44.223Z,2670
2023-01-13T10:27:58.457Z,2959
2023-01-13T10:29:12.690Z,2889
2023-01-13T10:30:26.924Z,3356
2023-01-13T10:31:41.140Z,2725
2023-01-13T10:32:55.450Z,2806
2023-01-13T10:34:09.690Z,3244
2023-01-13T10:35:23.905Z,3139
2023-01-13T10:36:38.144Z,2774
2023-01-13T10:37:52.359Z,2517
2023-01-13T10:39:06.657Z,2974
2023-01-13T10:40:20.896Z,3141
2023-01-13T10:41:35.140Z,2574
2023-01-13T10:42:49.350Z,2769
2023-01-13T10:44:03.589Z,2431
2023-01-13T10:45:17.888Z,2713
2023-01-13T10:46:32.121Z,2374
2023-01-13T10:47:46.362Z,2583
2023-01-13T10:49:00.576Z,2579
2023-01-13T10:50:14.807Z,3047
2023-01-13T10:51:29.100Z,3771
2023-01-13T10:52:43.352Z,3221
2023-01-13T10:53:57.567Z,2776
2023-01-13T10:55:11.865Z,3048
2023-01-13T10:56:25.200Z,3423
2023-01-13T10:57:39.471Z,3036
2023-01-13T10:58:52.764Z,4426
2023-01-13T11:00:07.007Z,5485
2023-01-13T11:01:21.299Z,2833
2023-01-13T11:02:35.528Z,3689
2023-01-13T11:03:49.775Z,5524
2023-01-13T11:06:18.224Z,5388
2023-01-13T11:07:32.522Z,6388
2023-01-13T11:08:46.769Z,7138
2023-01-13T11:10:00.981Z,5348
2023-01-13T11:11:15.217Z,5684
2023-01-13T11:12:29.435Z,2798
2023-01-13T11:13:43.733Z,10159
2023-01-13T11:14:57.986Z,5093
2023-01-13T11:16:12.205Z,4690
2023-01-13T11:17:26.438Z,4569
2023-01-13T11:18:40.661Z,6483
2023-01-13T11:21:09.197Z,4515
2023-01-13T11:22:23.428Z,2712
2023-01-13T11:23:37.660Z,3388
2023-01-13T11:24:51.875Z,3554
2023-01-13T11:26:06.180Z,3416
2023-01-13T11:27:20.423Z,4509
2023-01-13T11:28:34.652Z,4523
2023-01-13T11:29:48.933Z,3362
2023-01-13T11:31:02.241Z,3102
2023-01-13T11:32:16.470Z,5823
2023-01-13T11:33:30.691Z,6471
2023-01-13T11:35:59.141Z,3870
2023-01-13T11:37:13.446Z,4797
2023-01-13T11:38:27.698Z,3352
2023-01-13T11:39:41.919Z,2760
2023-01-13T11:40:56.138Z,4207
2023-01-13T11:42:10.374Z,4139
2023-01-13T11:43:24.664Z,3166
2023-01-13T11:44:38.921Z,2829
2023-01-13T11:45:53.144Z,3551
2023-01-13T11:47:07.376Z,2789
2023-01-13T11:48:21.599Z,3576
2023-01-13T11:49:35.887Z,3012
2023-01-13T11:50:50.136Z,1710
2023-01-13T11:52:04.371Z,1464
2023-01-13T11:53:18.590Z,1370
2023-01-13T11:54:32.816Z,1202
2023-01-13T11:55:47.106Z,1072
2023-01-13T11:57:01.366Z,1658
2023-01-13T11:58:15.590Z,1425
2023-01-13T12:00:44.041Z,1317
2023-01-13T12:01:58.398Z,1063
2023-01-13T12:03:12.680Z,971
2023-01-13T12:04:26.011Z,1015
2023-01-13T12:05:40.302Z,1171
2023-01-13T12:06:54.604Z,1936
2023-01-13T12:08:08.873Z,1842
2023-01-13T12:09:22.233Z,1903
2023-01-13T12:10:35.570Z,1871
2023-01-13T12:11:49.860Z,2129
2023-01-13T12:13:04.130Z,1450
2023-01-13T12:14:18.416Z,1828
2023-01-13T12:15:31.719Z,1668
2023-01-13T12:16:45.969Z,1499
2023-01-13T12:18:00.186Z,1666
2023-01-13T12:19:14.423Z,1404
2023-01-13T12:20:28.630Z,1113
2023-01-13T12:21:42.934Z,1160
2023-01-13T12:22:57.172Z,960
2023-01-13T12:25:25.639Z,1167
2023-01-13T12:27:54.162Z,1255
2023-01-13T12:29:08.406Z,951
2023-01-13T12:30:22.635Z,1167
2023-01-13T12:31:36.845Z,1523
2023-01-13T12:32:51.072Z,1738
2023-01-13T12:34:05.379Z,2833
2023-01-13T12:35:19.624Z,3528
2023-01-13T12:36:33.842Z,3922
2023-01-13T12:37:48.079Z,3992
2023-01-13T12:39:02.297Z,4179
2023-01-13T12:40:16.596Z,3444
2023-01-13T12:42:45.071Z,1893
2023-01-13T12:43:59.303Z,2146
2023-01-13T12:45:13.512Z,2323
2023-01-13T12:46:27.879Z,2029
2023-01-13T12:47:42.157Z,1843
2023-01-13T12:48:55.504Z,2181
2023-01-13T12:50:09.784Z,1489
2023-01-13T12:51:24.080Z,1977
2023-01-13T12:52:38.368Z,3028
2023-01-13T12:53:52.656Z,1728
2023-01-13T12:55:05.991Z,2419
2023-01-13T12:56:20.297Z,2113
2023-01-13T12:57:34.591Z,1736
2023-01-13T12:58:47.906Z,2504
2023-01-13T13:00:01.203Z,2357
2023-01-13T13:01:15.443Z,1995
2023-01-13T13:02:29.686Z,2466
2023-01-13T13:03:43.897Z,2101
2023-01-13T13:04:58.125Z,2146
2023-01-13T13:06:12.435Z,2016
2023-01-13T13:07:26.668Z,2056
2023-01-13T13:08:40.897Z,2450
2023-01-13T13:09:55.132Z,1377
2023-01-13T13:11:09.347Z,1035
2023-01-13T13:12:23.659Z,1433
2023-01-13T13:13:37.899Z,1600
2023-01-13T13:14:52.117Z,1914
2023-01-13T13:16:06.348Z,1586
2023-01-13T13:17:20.570Z,1575
2023-01-13T13:18:34.865Z,1563
2023-01-13T13:19:49.117Z,1867
2023-01-13T13:21:03.332Z,1277
2023-01-13T13:22:17.557Z,1466
2023-01-13T13:23:31.799Z,1651
2023-01-13T13:27:14.551Z,2003
2023-01-13T13:28:28.795Z,2308
2023-01-13T13:29:43.023Z,2386
2023-01-13T13:30:57.367Z,2308
2023-01-13T13:32:11.659Z,2304
2023-01-13T13:33:24.961Z,2501
2023-01-13T13:34:39.173Z,2132
2023-01-13T13:35:53.470Z,1665
2023-01-13T13:37:07.725Z,1412
2023-01-13T13:39:36.164Z,513
2023-01-13T13:40:50.406Z,554
2023-01-13T13:42:04.706Z,662
2023-01-13T13:43:18.939Z,668
2023-01-13T13:44:33.176Z,558
2023-01-13T13:45:47.390Z,775
2023-01-13T13:47:01.611Z,943
2023-01-13T13:48:15.926Z,938
2023-01-13T13:49:30.171Z,1463
2023-01-13T13:50:44.379Z,2187
2023-01-13T13:51:58.608Z,2648
2023-01-13T13:53:12.838Z,2768
2023-01-13T13:55:41.377Z,2954
2023-01-13T13:56:55.604Z,3017
2023-01-13T13:58:09.838Z,3748
2023-01-13T13:59:24.054Z,3105
2023-01-13T14:00:38.365Z,3039
2023-01-13T14:01:52.598Z,3158
2023-01-13T14:03:06.834Z,2748
2023-01-13T14:04:21.117Z,2597
2023-01-13T14:05:34.457Z,2671
2023-01-13T14:06:48.722Z,1698
2023-01-13T14:08:03.010Z,2132
2023-01-13T14:09:16.305Z,2659
2023-01-13T14:10:30.611Z,1992
2023-01-13T14:11:44.847Z,1564
2023-01-13T14:14:13.303Z,1960
2023-01-13T14:15:27.534Z,2165
2023-01-13T14:17:56.071Z,1378
2023-01-13T14:19:10.292Z,1220
2023-01-13T14:20:24.518Z,1196
2023-01-13T14:21:38.744Z,1239
2023-01-13T14:22:53.059Z,1729
2023-01-13T14:24:07.300Z,1683
2023-01-13T14:25:21.518Z,1501
2023-01-13T14:26:35.752Z,1237
2023-01-13T14:27:49.972Z,989
2023-01-13T14:29:04.269Z,775
2023-01-13T14:30:18.521Z,1250
2023-01-13T14:31:32.743Z,993
2023-01-13T14:32:46.962Z,986
2023-01-13T14:34:01.199Z,1150
2023-01-13T14:35:15.493Z,1211
2023-01-13T14:36:29.757Z,823
2023-01-13T14:37:43.969Z,495
2023-01-13T14:38:58.185Z,557
2023-01-13T14:40:12.469Z,536
2023-01-13T14:41:26.767Z,841
2023-01-13T14:42:41.064Z,916
2023-01-13T14:43:54.357Z,904
2023-01-13T14:45:08.576Z,838
2023-01-13T14:46:22.879Z,717
2023-01-13T14:47:37.117Z,610
2023-01-13T14:48:51.353Z,475
2023-01-13T14:50:05.572Z,332
2023-01-13T14:51:19.808Z,379
2023-01-13T14:52:34.110Z,311
2023-01-13T14:53:48.337Z,242
2023-01-13T14:55:02.578Z,221
2023-01-13T14:56:16.796Z,277
2023-01-13T14:57:31.034Z,323
2023-01-13T14:58:45.328Z,216
2023-01-13T14:59:59.574Z,157
2023-01-13T15:01:13.790Z,274
2023-01-13T15:02:28.018Z,341
2023-01-13T15:03:42.243Z,323
2023-01-13T15:04:56.538Z,417
2023-01-13T15:06:10.784Z,470
2023-01-13T15:07:25.013Z,508
2023-01-13T15:08:39.235Z,481
2023-01-13T15:09:53.464Z,516
2023-01-13T15:11:07.764Z,505
2023-01-13T15:12:22.010Z,553
2023-01-13T15:13:36.243Z,505
2023-01-13T15:14:50.519Z,456
2023-01-13T15:16:03.858Z,457
2023-01-13T15:17:18.142Z,431
2023-01-13T15:18:31.435Z,406
2023-01-13T15:19:45.648Z,385
2023-01-13T15:20:59.951Z,402
2023-01-13T15:23:28.420Z,386
2023-01-13T15:24:42.659Z,374
2023-01-13T15:25:56.876Z,356
2023-01-13T15:27:11.178Z,330
2023-01-13T15:28:25.415Z,325
2023-01-13T15:29:39.653Z,313
2023-01-13T15:30:53.868Z,279
2023-01-13T15:33:22.404Z,241
2023-01-13T15:34:36.638Z,198
2023-01-13T15:35:50.863Z,148
2023-01-13T15:38:19.313Z,98
2023-01-13T15:39:33.612Z,76
2023-01-13T15:40:47.870Z,67
2023-01-13T15:42:02.087Z,61
2023-01-13T15:43:16.315Z,49
2023-01-13T15:45:44.834Z,44
2023-01-13T15:46:59.091Z,38
2023-01-13T15:48:13.313Z,43
2023-01-13T15:49:27.606Z,37
2023-01-13T15:50:40.932Z,34
2023-01-13T15:51:55.220Z,31
2023-01-13T15:53:08.568Z,26
2023-01-13T15:54:21.893Z,25
2023-01-13T15:55:36.184Z,18
2023-01-13T15:56:50.468Z,17
2023-01-13T15:58:04.746Z,17
2023-01-13T15:59:18.000Z,12
2023-01-13T16:00:32.283Z,9
2023-01-13T16:01:46.511Z,8
2023-01-13T16:03:00.737Z,9
2023-01-13T16:04:14.972Z,8
2023-01-13T16:05:29.263Z,7
2023-01-13T16:06:43.508Z,7
2023-01-13T16:07:57.726Z,3
2023-01-13T16:09:11.962Z,2
2023-01-13T16:10:26.317Z,3
2023-01-13T16:11:40.601Z,2
2023-01-13T16:12:54.855Z,3
2023-01-13T16:14:09.084Z,1
2023-01-13T16:16:37.529Z,2
2023-01-13T16:17:51.899Z,0
2023-01-13T16:19:06.230Z,0
2023-01-13T16:20:20.508Z,0
2023-01-13T16:21:34.776Z,0
2023-01-13T16:24:03.505Z,0
2023-01-13T16:25:17.732Z,1
2023-01-13T16:26:31.981Z,1
2023-01-13T16:29:00.514Z,1
2023-01-13T16:30:14.745Z,1
2023-01-13T16:31:28.966Z,1
2023-01-13T16:32:43.205Z,1
2023-01-13T16:33:57.421Z,1
2023-01-13T16:35:11.721Z,1
2023-01-13T16:36:25.976Z,1
2023-01-13T16:37:40.198Z,1
2023-01-13T16:38:54.429Z,1
2023-01-13T16:40:08.648Z,1
2023-01-13T16:41:22.948Z,1
2023-01-13T16:42:37.183Z,1
2023-01-13T16:43:51.462Z,0
2023-01-13T16:45:05.701Z,1
2023-01-13T16:46:19.943Z,1
2023-01-13T16:47:34.239Z,1
2023-01-13T16:48:48.548Z,0
2023-01-13T16:50:02.815Z,0
2023-01-13T16:51:17.049Z,1
2023-01-13T16:53:45.704Z,0
2023-01-13T16:54:59.926Z,1
2023-01-13T16:56:14.205Z,1
2023-01-13T16:57:28.496Z,1
2023-01-13T16:58:42.799Z,1
2023-01-13T16:59:57.086Z,1
2023-01-13T17:01:10.419Z,1
2023-01-13T17:02:24.715Z,1
2023-01-13T17:03:39.006Z,1
2023-01-13T17:06:07.568Z,1
2023-01-13T17:07:20.934Z,1
2023-01-13T17:08:35.230Z,1
2023-01-13T17:09:49.511Z,1
2023-01-13T17:11:02.850Z,1
2023-01-13T17:13:31.433Z,1
2023-01-13T17:16:00.003Z,1
2023-01-13T17:17:14.280Z,1
2023-01-13T17:18:28.559Z,1
2023-01-13T17:20:57.140Z,1
2023-01-13T17:22:10.440Z,1
2023-01-13T17:23:24.664Z,1
2023-01-13T17:27:07.441Z,1
2023-01-13T17:28:21.661Z,1
2023-01-13T17:30:50.179Z,1
2023-01-13T17:32:04.474Z,0
2023-01-13T17:33:18.716Z,1
2023-01-13T17:34:32.989Z,0
2023-01-13T17:35:47.230Z,1
2023-01-13T17:37:01.533Z,1
2023-01-13T17:38:15.781Z,1
2023-01-13T17:39:30.009Z,1
2023-01-13T17:40:44.243Z,1
2023-01-13T17:41:58.533Z,0
2023-01-13T17:44:27.237Z,0
2023-01-13T17:45:41.499Z,0
2023-01-13T17:46:55.795Z,0
2023-01-13T17:48:10.159Z,1
2023-01-13T17:49:24.450Z,0
2023-01-13T17:50:38.729Z,0
2023-01-13T17:51:53.053Z,0
2023-01-13T17:53:07.392Z,0
2023-01-13T17:54:21.755Z,1
2023-01-13T17:55:36.088Z,0
2023-01-13T17:56:49.442Z,1
2023-01-13T17:58:02.773Z,1
2023-01-13T17:59:17.108Z,0
2023-01-13T18:00:30.455Z,0
2023-01-13T18:01:44.734Z,0
2023-01-13T18:04:13.458Z,0
2023-01-13T18:05:27.747Z,0
2023-01-13T18:06:42.064Z,0
2023-01-13T18:07:56.359Z,0
2023-01-13T18:09:10.723Z,1
2023-01-13T18:10:25.022Z,0
2023-01-13T18:11:39.290Z,0
2023-01-13T18:12:53.578Z,0
2023-01-13T18:14:07.982Z,0
2023-01-13T18:15:22.300Z,0
2023-01-13T18:16:36.590Z,0
2023-01-13T18:17:50.873Z,0
2023-01-13T18:19:05.269Z,0
2023-01-13T18:20:19.591Z,0
2023-01-13T18:21:33.833Z,1
2023-01-13T18:22:48.125Z,0
2023-01-13T18:24:02.513Z,0
2023-01-13T18:25:16.774Z,1